Springfield, Maine
Current Conditions -  °F | °C
As of 5:18 AM on Wednesday 22 Oct 2014 (Local Time) from KMLT Reporting Station
Light Rain Light Rain  
Wind Chill: 38°   Ceiling: 12000
Heat Index: 43°   Visibility: 10mi
Dew Point: 33°   Wind: 8mph
Humidity: 68%   Direction: 50°NE
Pressure: 30.27"   Gusts: NA
Location:  45.4°N, 68.13°W
Report Text: KMLT 220918Z AUTO 05007KT 10SM -RA SCT026 SCT050 OVC120 06/01 A3027 RMK AO2 RAB16 P0000 T00610006
Loading
Personal Weather Stations






























Interactive Weather Map
Tropical Storm Tracking
New forecast layout! Learn more

10-Day Weather Forecast

Advertisements
Track Severe Weather on mobile